createdAt,value
2018-08-03T00:01:03.555Z,88.10
2018-08-03T00:02:03.549Z,87.43
2018-08-03T00:03:56.491Z,88.20
2018-08-03T00:04:56.504Z,88.68
2018-08-03T00:06:49.457Z,88.68
2018-08-03T00:07:49.456Z,88.01
2018-08-03T00:09:42.410Z,89.17
2018-08-03T00:10:42.400Z,89.55
2018-08-03T00:12:35.342Z,88.68
2018-08-03T00:13:35.364Z,88.97
2018-08-03T00:15:28.315Z,89.75
2018-08-03T00:16:28.311Z,89.94
2018-08-03T00:18:21.240Z,89.84
2018-08-03T00:19:21.259Z,89.65
2018-08-03T00:21:14.215Z,89.45
2018-08-03T00:22:14.208Z,88.78
2018-08-03T00:24:07.148Z,88.39
2018-08-03T00:25:07.164Z,88.20
2018-08-03T00:27:00.122Z,88.59
2018-08-03T00:28:00.121Z,88.78
2018-08-03T00:29:53.072Z,88.49
2018-08-03T00:30:53.068Z,88.97
2018-08-03T00:32:45.999Z,88.59
2018-08-03T00:33:46.016Z,88.49
2018-08-03T00:35:38.967Z,89.07
2018-08-03T00:36:38.967Z,88.87
2018-08-03T00:38:31.904Z,88.87
2018-08-03T00:39:31.922Z,88.87
2018-08-03T00:41:24.872Z,89.45
2018-08-03T00:42:24.870Z,89.55
2018-08-03T00:44:17.805Z,89.26
2018-08-03T00:45:17.819Z,90.42
2018-08-03T00:47:10.773Z,91.05
2018-08-03T00:48:10.771Z,91.09
2018-08-03T00:50:03.730Z,91.39
2018-08-03T00:51:03.727Z,91.19
2018-08-03T00:52:56.661Z,91.83
2018-08-03T00:53:56.677Z,92.60
2018-08-03T00:55:49.627Z,93.56
2018-08-03T00:56:49.627Z,93.76
2018-08-03T00:58:42.558Z,93.66
2018-08-03T00:59:42.575Z,94.72
2018-08-03T01:01:35.523Z,94.72
2018-08-03T01:02:35.521Z,95.20
2018-08-03T01:04:28.454Z,96.31
2018-08-03T01:05:28.469Z,96.17
2018-08-03T01:07:21.424Z,95.78
2018-08-03T01:08:21.418Z,95.40
2018-08-03T01:10:14.370Z,96.51
2018-08-03T01:11:14.368Z,96.61
2018-08-03T01:13:07.301Z,96.61
2018-08-03T01:14:07.319Z,97.38
2018-08-03T01:16:00.272Z,98.05
2018-08-03T01:17:00.264Z,98.54
2018-08-03T01:18:53.199Z,97.38
2018-08-03T01:19:53.218Z,97.57
2018-08-03T01:21:46.178Z,97.86
2018-08-03T01:22:46.168Z,97.47
2018-08-03T01:24:39.099Z,97.57
2018-08-03T01:25:39.115Z,97.57
2018-08-03T01:27:32.065Z,97.86
2018-08-03T01:28:32.065Z,98.34
2018-08-03T01:30:25.017Z,99.40
2018-08-03T01:31:25.017Z,98.92
2018-08-03T01:33:17.944Z,98.73
2018-08-03T01:34:17.958Z,98.73
2018-08-03T01:36:10.915Z,98.92
2018-08-03T01:37:10.914Z,97.86
2018-08-03T01:39:03.855Z,97.57
2018-08-03T01:40:03.872Z,96.89
2018-08-03T01:41:56.828Z,98.44
2018-08-03T01:42:56.824Z,98.92
2018-08-03T01:44:49.751Z,98.73
2018-08-03T01:45:49.769Z,99.11
2018-08-03T01:47:42.720Z,99.88
2018-08-03T01:48:42.720Z,99.99
2018-08-03T01:50:35.672Z,99.99
2018-08-03T01:51:35.668Z,99.99
2018-08-03T01:53:28.598Z,99.99
2018-08-03T01:54:28.615Z,99.99
2018-08-03T02:24:00.531Z,97.72
2018-08-03T02:25:00.526Z,97.52
2018-08-03T02:26:53.464Z,98.68
2018-08-03T02:27:53.458Z,98.39
2018-08-03T02:29:46.377Z,97.62
2018-08-03T02:30:46.393Z,97.42
2018-08-03T02:32:39.340Z,98.49
2018-08-03T02:33:39.336Z,98.00
2018-08-03T02:35:32.263Z,98.29
2018-08-03T02:36:32.272Z,99.26
2018-08-03T02:38:25.221Z,97.81
2018-08-03T02:39:25.222Z,98.58
2018-08-03T02:41:18.166Z,99.07
2018-08-03T02:42:18.160Z,99.65
2018-08-03T02:44:11.096Z,98.10
2018-08-03T02:45:11.113Z,98.39
2018-08-03T02:47:04.059Z,98.39
2018-08-03T02:48:04.057Z,98.00
2018-08-03T02:49:56.991Z,98.00
2018-08-03T02:50:57.009Z,97.72
2018-08-03T02:52:49.956Z,97.33
2018-08-03T02:53:49.952Z,97.42
2018-08-03T02:55:42.882Z,97.33
2018-08-03T02:56:42.898Z,97.33
2018-08-03T02:58:35.848Z,98.29
2018-08-03T02:59:35.841Z,97.52
2018-08-03T03:01:28.791Z,97.91
2018-08-03T03:02:28.786Z,97.91
2018-08-03T03:04:21.723Z,97.91
2018-08-03T03:05:21.734Z,98.39
2018-08-03T03:07:14.713Z,98.29
2018-08-03T03:08:14.683Z,99.45
2018-08-03T03:10:07.615Z,99.65
2018-08-03T03:11:07.634Z,99.35
2018-08-03T03:13:00.583Z,99.16
2018-08-03T03:14:00.578Z,99.99
2018-08-03T03:15:53.510Z,99.99
2018-08-03T03:16:53.526Z,99.99
2018-08-03T03:18:46.483Z,99.99
2018-08-03T03:19:46.509Z,99.99
2018-08-03T03:21:39.433Z,99.99
2018-08-03T03:22:39.424Z,99.99
2018-08-03T03:24:32.366Z,99.99
2018-08-03T03:25:32.381Z,99.99
2018-08-03T03:27:25.334Z,99.99
2018-08-03T03:28:25.332Z,99.99
2018-08-03T03:30:18.260Z,99.99
2018-08-03T03:31:18.277Z,99.99
2018-08-03T03:33:11.225Z,99.99
2018-08-03T03:34:11.223Z,99.99
2018-08-03T03:36:04.153Z,99.99
2018-08-03T03:37:04.174Z,99.99
2018-08-03T03:38:57.124Z,99.99
2018-08-03T03:39:57.120Z,99.99
2018-08-03T03:41:50.070Z,99.99
2018-08-03T03:42:50.067Z,99.99
2018-08-03T03:44:42.997Z,99.99
2018-08-03T03:45:43.021Z,99.99
2018-08-03T03:47:35.967Z,99.99
2018-08-03T03:48:35.960Z,99.99
2018-08-03T03:50:28.888Z,99.99
2018-08-03T03:51:28.904Z,99.99
2018-08-03T03:53:21.851Z,99.99
2018-08-03T03:54:21.852Z,99.99
2018-08-03T03:56:14.788Z,99.99
2018-08-03T03:57:14.806Z,99.99
2018-08-03T03:59:07.782Z,99.99
2018-08-03T04:00:07.752Z,99.99
2018-08-03T04:02:00.707Z,99.99
2018-08-03T04:03:00.701Z,99.99
2018-08-03T04:04:53.633Z,99.99
2018-08-03T04:05:53.656Z,99.99
2018-08-03T04:07:46.595Z,99.99
2018-08-03T04:08:46.595Z,99.99
2018-08-03T04:10:39.521Z,99.99
2018-08-03T04:11:39.536Z,99.99
2018-08-03T04:13:32.494Z,99.99
2018-08-03T04:14:32.486Z,99.99
2018-08-03T04:16:25.417Z,99.99
2018-08-03T04:17:25.433Z,99.99
2018-08-03T04:19:18.386Z,99.99
2018-08-03T04:20:18.383Z,99.99
2018-08-03T04:22:11.332Z,99.99
2018-08-03T04:23:11.328Z,99.99
2018-08-03T04:25:04.278Z,99.99
2018-08-03T04:26:04.274Z,99.99
2018-08-03T04:27:57.232Z,99.99
2018-08-03T04:28:57.229Z,99.99
2018-08-03T04:30:50.160Z,99.99
2018-08-03T04:31:50.183Z,99.99
2018-08-03T04:33:43.129Z,99.99
2018-08-03T04:34:43.128Z,99.99
2018-08-03T04:36:36.054Z,99.99
2018-08-03T04:37:36.072Z,99.99
2018-08-03T04:39:29.026Z,99.99
2018-08-03T04:40:29.027Z,99.99
2018-08-03T04:42:22.109Z,99.99
2018-08-03T04:43:21.969Z,99.99
2018-08-03T04:45:14.904Z,99.99
2018-08-03T04:46:14.922Z,99.99
2018-08-03T04:48:07.871Z,99.99
2018-08-03T04:49:07.868Z,99.99
2018-08-03T04:51:00.797Z,99.99
2018-08-03T04:52:00.821Z,99.99
2018-08-03T04:53:53.764Z,99.99
2018-08-03T04:54:53.769Z,99.99
2018-08-03T04:56:46.696Z,99.99
2018-08-03T04:57:46.714Z,99.99
2018-08-03T04:59:39.667Z,99.99
2018-08-03T05:00:39.665Z,99.99
2018-08-03T05:02:32.619Z,99.99
2018-08-03T05:03:32.619Z,99.99
2018-08-03T05:05:25.545Z,99.99
2018-08-03T05:06:25.562Z,99.99
2018-08-03T05:08:18.510Z,99.99
2018-08-03T05:09:18.512Z,99.99
2018-08-03T05:11:11.447Z,99.99
2018-08-03T05:12:11.521Z,99.99
2018-08-03T05:14:04.416Z,99.99
2018-08-03T05:15:04.416Z,99.99
2018-08-03T05:16:57.355Z,99.99
2018-08-03T05:17:57.368Z,99.99
2018-08-03T05:19:50.313Z,99.99
2018-08-03T05:20:50.310Z,99.99
2018-08-03T05:22:43.275Z,99.99
2018-08-03T05:23:43.273Z,99.99
2018-08-03T05:25:36.197Z,99.99
2018-08-03T05:26:36.220Z,99.99
2018-08-03T05:28:29.169Z,99.99
2018-08-03T05:29:29.166Z,99.99
2018-08-03T05:31:22.109Z,99.99
2018-08-03T05:32:22.120Z,99.99
2018-08-03T05:34:15.075Z,99.99
2018-08-03T05:35:15.078Z,99.99
2018-08-03T05:37:08.016Z,99.99
2018-08-03T05:38:08.028Z,99.99
2018-08-03T05:40:00.988Z,99.99
2018-08-03T05:41:00.973Z,99.99
2018-08-03T05:42:53.929Z,99.99
2018-08-03T05:43:53.924Z,99.99
2018-08-03T05:45:46.854Z,99.99
2018-08-03T05:46:46.877Z,99.99
2018-08-03T05:48:39.828Z,99.99
2018-08-03T05:49:39.825Z,99.99
2018-08-03T05:51:32.757Z,99.99
2018-08-03T05:52:32.854Z,99.99
2018-08-03T05:54:25.729Z,99.99
2018-08-03T05:55:25.725Z,99.99
2018-08-03T05:57:18.657Z,96.26
2018-08-03T05:58:18.676Z,95.50
2018-08-03T06:00:11.630Z,92.16
2018-08-03T06:01:11.624Z,91.09
2018-08-03T06:03:05.568Z,88.82
2018-08-03T06:04:05.576Z,88.29
2018-08-03T06:05:58.505Z,88.24
2018-08-03T06:06:58.522Z,86.79
2018-08-03T06:08:51.476Z,86.69
2018-08-03T06:09:51.485Z,86.89
2018-08-03T06:11:44.403Z,81.40
2018-08-03T06:12:44.419Z,79.32
2018-08-03T06:14:37.372Z,76.54
2018-08-03T06:15:37.373Z,72.45
2018-08-03T06:17:30.309Z,65.20
2018-08-03T06:18:30.323Z,62.06
2018-08-03T06:20:23.280Z,57.89
2018-08-03T06:21:23.279Z,55.90
2018-08-03T06:23:16.230Z,53.42
2018-08-03T06:24:16.231Z,52.17
2018-08-03T06:26:09.169Z,51.03
2018-08-03T06:27:09.194Z,50.63
2018-08-03T06:29:02.155Z,49.68
2018-08-03T06:30:02.157Z,49.65
2018-08-03T06:31:55.093Z,49.75
2018-08-03T06:32:55.111Z,49.85
2018-08-03T06:34:48.072Z,49.46
2018-08-03T06:35:48.073Z,48.63
2018-08-03T06:37:41.017Z,46.54
2018-08-03T06:38:41.036Z,46.17
2018-08-03T06:40:34.008Z,45.68
2018-08-03T06:41:34.002Z,45.68
2018-08-03T06:43:26.969Z,46.33
2018-08-03T06:44:26.971Z,46.13
2018-08-03T06:46:19.909Z,45.66
2018-08-03T06:47:19.936Z,45.59
2018-08-03T06:49:12.904Z,45.39
2018-08-03T06:50:12.909Z,45.49
2018-08-03T06:52:05.853Z,45.86
2018-08-03T06:53:05.879Z,45.78
2018-08-03T06:54:58.841Z,46.23
2018-08-03T06:55:58.864Z,45.98
2018-08-03T06:57:51.811Z,45.51
2018-08-03T06:58:51.825Z,45.21
2018-08-03T07:00:44.796Z,44.82
2018-08-03T07:01:44.787Z,45.49
2018-08-03T07:03:37.750Z,45.78
2018-08-03T07:04:37.756Z,45.68
2018-08-03T07:06:30.705Z,46.62
2018-08-03T07:07:30.727Z,46.69
2018-08-03T07:09:23.693Z,48.77
2018-08-03T07:10:23.701Z,48.77
2018-08-03T07:12:16.654Z,49.58
2018-08-03T07:13:16.671Z,49.19
2018-08-03T07:15:09.638Z,48.21
2018-08-03T07:16:09.645Z,48.04
2018-08-03T07:18:02.593Z,48.41
2018-08-03T07:19:02.614Z,49.07
2018-08-03T07:20:55.586Z,49.36
2018-08-03T07:21:55.591Z,50.61
2018-08-03T07:23:48.559Z,51.73
2018-08-03T07:24:48.567Z,51.56
2018-08-03T07:26:41.506Z,51.10
2018-08-03T07:27:41.532Z,50.93
2018-08-03T07:29:34.493Z,50.51
2018-08-03T07:30:34.504Z,50.93
2018-08-03T07:32:27.446Z,50.73
2018-08-03T07:33:27.472Z,51.20
2018-08-03T07:35:20.436Z,51.76
2018-08-03T07:36:20.443Z,52.34
2018-08-03T07:38:13.395Z,53.05
2018-08-03T07:39:13.418Z,52.08
2018-08-03T07:41:06.389Z,49.99
2018-08-03T07:42:06.390Z,49.70
2018-08-03T07:43:59.358Z,49.95
2018-08-03T07:44:59.450Z,49.75
2018-08-03T07:46:52.309Z,50.27
2018-08-03T07:47:52.331Z,50.17
2018-08-03T07:49:45.300Z,49.77
2018-08-03T07:50:45.304Z,49.41
2018-08-03T07:52:38.284Z,49.31
2018-08-03T07:53:38.275Z,49.04
2018-08-03T07:55:31.241Z,48.09
2018-08-03T07:56:31.247Z,47.79
2018-08-03T07:58:24.194Z,47.79
2018-08-03T07:59:24.222Z,47.11
2018-08-03T08:01:17.183Z,47.40
2018-08-03T08:02:17.188Z,47.87
2018-08-03T08:04:10.171Z,48.63
2018-08-03T08:05:10.161Z,49.21
2018-08-03T08:07:03.110Z,48.65
2018-08-03T08:08:03.138Z,48.36
2018-08-03T08:09:56.102Z,48.58
2018-08-03T08:10:56.112Z,48.48
2018-08-03T08:12:49.054Z,47.42
2018-08-03T08:13:49.077Z,48.01
2018-08-03T08:15:42.095Z,47.89
2018-08-03T08:16:42.045Z,48.68
2018-08-03T08:18:34.995Z,50.29
2018-08-03T08:19:35.021Z,51.37
2018-08-03T08:21:27.980Z,51.15
2018-08-03T08:22:27.986Z,51.25
2018-08-03T08:24:20.953Z,51.05
2018-08-03T08:25:20.955Z,51.42
2018-08-03T08:27:13.905Z,52.29
2018-08-03T08:28:13.924Z,52.00
2018-08-03T08:30:06.893Z,53.08
2018-08-03T08:31:06.896Z,51.90
2018-08-03T08:32:59.849Z,51.51
2018-08-03T08:33:59.872Z,51.22
2018-08-03T08:35:52.840Z,51.15
2018-08-03T08:36:52.851Z,50.95
2018-08-03T08:38:45.788Z,51.44
2018-08-03T08:39:45.807Z,52.12
2018-08-03T08:41:38.777Z,51.54
2018-08-03T08:42:38.780Z,51.44
2018-08-03T08:44:31.743Z,51.83
2018-08-03T08:45:31.746Z,52.20
2018-08-03T08:47:24.688Z,52.10
2018-08-03T08:48:24.708Z,53.08
2018-08-03T08:50:17.673Z,51.71
2018-08-03T08:51:17.689Z,51.25
2018-08-03T08:53:10.652Z,51.64
2018-08-03T08:54:10.641Z,51.86
2018-08-03T08:56:03.600Z,51.07
2018-08-03T08:57:03.601Z,51.05
2018-08-03T08:58:56.556Z,51.42
2018-08-03T08:59:56.573Z,52.42
2018-08-03T09:01:49.533Z,52.88
2018-08-03T09:02:49.537Z,52.49
2018-08-03T09:04:42.502Z,52.20
2018-08-03T09:05:42.508Z,52.39
2018-08-03T09:07:35.554Z,51.64
2018-08-03T09:08:35.473Z,51.17
2018-08-03T09:10:28.433Z,52.34
2018-08-03T09:11:28.440Z,51.07
2018-08-03T09:13:21.387Z,52.25
2018-08-03T09:14:21.407Z,51.46
2018-08-03T09:16:14.375Z,52.91
2018-08-03T09:17:14.379Z,51.66
2018-08-03T09:19:07.321Z,53.03
2018-08-03T09:20:07.340Z,51.27
2018-08-03T09:22:00.326Z,51.00
2018-08-03T09:23:00.313Z,51.10
2018-08-03T09:24:53.274Z,50.15
2018-08-03T09:25:53.275Z,50.15
2018-08-03T09:27:46.214Z,50.15
2018-08-03T09:28:46.236Z,50.04
2018-08-03T09:30:39.197Z,50.93
2018-08-03T09:31:39.200Z,51.32
2018-08-03T09:33:32.142Z,50.24
2018-08-03T09:34:32.169Z,50.04
2018-08-03T09:36:25.148Z,50.24
2018-08-03T09:37:25.130Z,50.90
2018-08-03T09:39:18.075Z,50.04
2018-08-03T09:40:18.140Z,49.16
2018-08-03T09:42:11.054Z,48.48
2018-08-03T09:43:11.057Z,48.77
2018-08-03T09:45:04.025Z,50.15
2018-08-03T09:46:04.021Z,49.65
2018-08-03T09:47:56.977Z,49.65
2018-08-03T09:48:57.007Z,50.04
2018-08-03T09:50:49.959Z,48.58
2018-08-03T09:51:49.962Z,48.50
2018-08-03T09:53:42.913Z,47.62
2018-08-03T09:54:42.927Z,47.33
2018-08-03T09:56:35.897Z,47.81
2018-08-03T09:57:35.897Z,48.50
2018-08-03T09:59:28.834Z,47.64
2018-08-03T10:00:28.856Z,47.16
2018-08-03T10:02:21.817Z,46.47
2018-08-03T10:03:21.820Z,47.35
2018-08-03T10:05:14.782Z,47.35
2018-08-03T10:06:14.784Z,48.72
2018-08-03T10:08:07.727Z,47.94
2018-08-03T10:09:07.750Z,47.45
2018-08-03T10:11:00.723Z,48.03
2018-08-03T10:12:00.724Z,47.94
2018-08-03T10:13:53.676Z,47.33
2018-08-03T10:14:53.702Z,47.72
2018-08-03T10:16:46.661Z,47.84
2018-08-03T10:17:46.683Z,48.21
2018-08-03T10:19:39.674Z,48.23
2018-08-03T10:20:39.651Z,46.66
2018-08-03T10:22:32.665Z,46.74
2018-08-03T10:23:32.605Z,47.91
2018-08-03T10:25:25.569Z,47.42
2018-08-03T10:26:25.567Z,46.86
2018-08-03T10:28:18.512Z,46.56
2018-08-03T10:29:18.555Z,46.69
2018-08-03T10:31:11.494Z,46.20
2018-08-03T10:32:11.501Z,45.73
2018-08-03T10:34:04.452Z,46.81
2018-08-03T10:35:04.474Z,45.73
2018-08-03T10:36:57.434Z,45.55
2018-08-03T10:37:57.434Z,44.87
2018-08-03T10:39:50.374Z,43.39
2018-08-03T10:40:50.398Z,43.98
2018-08-03T10:42:43.370Z,42.98
2018-08-03T10:43:43.367Z,42.96
2018-08-03T10:45:36.311Z,43.47
2018-08-03T10:46:36.335Z,42.98
2018-08-03T10:48:29.296Z,41.90
2018-08-03T10:49:29.304Z,42.79
2018-08-03T10:51:22.303Z,42.98
2018-08-03T10:52:22.268Z,43.47
2018-08-03T10:54:15.208Z,42.66
2018-08-03T10:55:15.231Z,42.57
2018-08-03T10:57:08.194Z,42.96
2018-08-03T10:58:08.245Z,43.35
2018-08-03T11:00:01.150Z,44.16
2018-08-03T11:01:01.158Z,43.65
2018-08-03T11:02:54.126Z,43.47
2018-08-03T11:03:54.126Z,43.66
2018-08-03T11:05:47.078Z,43.29
2018-08-03T11:06:47.120Z,42.43
2018-08-03T11:08:40.057Z,41.55
2018-08-03T11:09:40.068Z,41.25
2018-08-03T11:11:33.027Z,42.33
2018-08-03T11:12:33.029Z,42.43
2018-08-03T11:14:25.974Z,42.72
2018-08-03T11:15:25.999Z,42.43
2018-08-03T11:17:18.959Z,41.94
2018-08-03T11:18:18.970Z,42.72
2018-08-03T11:20:11.910Z,43.73
2018-08-03T11:21:11.934Z,42.43
2018-08-03T11:23:04.905Z,42.24
2018-08-03T11:24:04.938Z,42.14
2018-08-03T11:25:57.854Z,41.67
2018-08-03T11:26:57.876Z,41.78
2018-08-03T11:28:50.842Z,41.88
2018-08-03T11:29:50.934Z,42.08
2018-08-03T11:31:43.813Z,42.47
2018-08-03T11:32:43.810Z,42.77
2018-08-03T11:34:36.756Z,42.86
2018-08-03T11:35:36.776Z,42.08
2018-08-03T11:37:29.743Z,42.57
2018-08-03T11:38:29.750Z,41.98
2018-08-03T11:40:22.691Z,41.61
2018-08-03T11:41:22.712Z,41.71
2018-08-03T11:43:15.676Z,41.80
2018-08-03T11:44:15.683Z,41.22
2018-08-03T11:46:08.636Z,41.71
2018-08-03T11:47:08.660Z,42.49
2018-08-03T11:49:01.628Z,41.71
2018-08-03T11:50:01.631Z,41.90
2018-08-03T11:51:54.606Z,41.29
2018-08-03T11:52:54.599Z,41.02
2018-08-03T11:54:47.545Z,42.08
2018-08-03T11:55:47.568Z,42.57
2018-08-03T11:57:40.539Z,41.41
2018-08-03T11:58:40.544Z,41.39
2018-08-03T12:00:33.489Z,40.72
2018-08-03T12:01:33.508Z,40.92
2018-08-03T12:03:26.478Z,40.25
2018-08-03T12:04:26.481Z,40.56
2018-08-03T12:06:19.453Z,39.78
2018-08-03T12:07:19.458Z,39.97
2018-08-03T12:09:12.414Z,39.79
2018-08-03T12:10:12.418Z,39.39
2018-08-03T12:12:05.367Z,40.17
2018-08-03T12:13:05.388Z,39.87
2018-08-03T12:14:58.352Z,39.78
2018-08-03T12:15:58.360Z,39.31
2018-08-03T12:17:51.382Z,38.62
2018-08-03T12:18:51.326Z,38.62
2018-08-03T12:20:44.277Z,38.60
2018-08-03T12:21:44.298Z,38.70
2018-08-03T12:23:37.355Z,38.32
2018-08-03T12:24:37.268Z,38.02
2018-08-03T12:26:30.215Z,38.51
2018-08-03T12:27:30.239Z,38.12
2018-08-03T12:29:23.209Z,37.83
2018-08-03T12:30:23.216Z,38.22
2018-08-03T12:32:16.171Z,38.20
2018-08-03T12:33:16.192Z,38.30
2018-08-03T12:35:09.153Z,38.20
2018-08-03T12:36:09.161Z,38.01
2018-08-03T12:38:02.126Z,37.53
2018-08-03T12:39:02.130Z,37.73
2018-08-03T12:40:55.134Z,37.53
2018-08-03T12:41:55.111Z,37.35
2018-08-03T12:43:48.073Z,38.14
2018-08-03T12:44:48.079Z,37.55
2018-08-03T12:46:41.028Z,37.61
2018-08-03T12:47:41.050Z,38.01
2018-08-03T12:49:34.020Z,37.32
2018-08-03T12:50:34.077Z,37.32
2018-08-03T12:52:27.001Z,37.61
2018-08-03T12:53:26.992Z,37.32
2018-08-03T12:55:19.942Z,36.74
2018-08-03T12:56:19.962Z,36.65
2018-08-03T12:58:12.931Z,35.58
2018-08-03T12:59:12.932Z,35.48
2018-08-03T13:01:05.885Z,35.68
2018-08-03T13:02:05.905Z,35.48
2018-08-03T13:03:58.871Z,35.36
2018-08-03T13:04:58.879Z,35.86
2018-08-03T13:06:51.819Z,37.14
2018-08-03T13:07:51.952Z,37.14
2018-08-03T13:09:44.812Z,36.05
2018-08-03T13:10:44.819Z,35.76
2018-08-03T13:12:37.760Z,35.94
2018-08-03T13:13:37.784Z,36.53
2018-08-03T13:15:30.750Z,36.35
2018-08-03T13:16:30.753Z,36.13
2018-08-03T13:18:23.717Z,36.25
2018-08-03T13:19:23.723Z,35.96
2018-08-03T13:21:16.706Z,36.66
2018-08-03T13:22:16.688Z,36.15
2018-08-03T13:24:09.665Z,36.05
2018-08-03T13:25:09.658Z,36.05
2018-08-03T13:27:02.605Z,35.17
2018-08-03T13:28:02.630Z,35.08
2018-08-03T13:29:55.597Z,35.38
2018-08-03T13:30:55.601Z,35.97
2018-08-03T13:32:48.550Z,34.89
2018-08-03T13:33:48.572Z,34.99
2018-08-03T13:35:41.541Z,34.48
2018-08-03T13:36:41.547Z,34.97
2018-08-03T13:38:34.510Z,34.77
2018-08-03T13:39:34.513Z,34.87
2018-08-03T13:41:27.458Z,35.44
2018-08-03T13:42:27.483Z,35.35
2018-08-03T13:44:20.444Z,35.15
2018-08-03T13:45:20.463Z,35.44
2018-08-03T13:47:13.395Z,35.15
2018-08-03T13:48:13.425Z,35.53
2018-08-03T13:50:06.449Z,35.94
2018-08-03T13:51:06.456Z,35.94
2018-08-03T13:52:59.403Z,35.23
2018-08-03T13:53:59.424Z,35.63
2018-08-03T13:55:52.390Z,35.71
2018-08-03T13:56:52.393Z,35.61
2018-08-03T13:58:45.363Z,35.21
2018-08-03T13:59:45.359Z,35.31
2018-08-03T14:01:38.310Z,35.63
2018-08-03T14:02:38.329Z,35.03
2018-08-03T14:04:31.300Z,34.64
2018-08-03T14:05:31.296Z,34.54
2018-08-03T14:07:24.246Z,34.36
2018-08-03T14:08:24.273Z,33.87
2018-08-03T14:10:17.239Z,34.06
2018-08-03T14:11:17.263Z,33.87
2018-08-03T14:13:10.197Z,34.06
2018-08-03T14:14:10.221Z,33.48
2018-08-03T14:16:03.191Z,33.95
2018-08-03T14:17:03.190Z,34.56
2018-08-03T14:18:56.153Z,34.66
2018-08-03T14:19:56.158Z,33.67
2018-08-03T14:21:49.106Z,33.18
2018-08-03T14:22:49.129Z,33.59
2018-08-03T14:24:42.096Z,34.18
2018-08-03T14:25:42.094Z,33.69
2018-08-03T14:27:35.042Z,33.67
2018-08-03T14:28:35.065Z,33.59
2018-08-03T14:30:28.032Z,33.59
2018-08-03T14:31:28.087Z,33.59
2018-08-03T14:33:20.979Z,33.98
2018-08-03T14:34:21.005Z,33.59
2018-08-03T14:36:13.969Z,33.59
2018-08-03T14:37:13.976Z,33.39
2018-08-03T14:39:06.946Z,32.90
2018-08-03T14:40:06.946Z,33.00
2018-08-03T14:41:59.890Z,33.39
2018-08-03T14:42:59.911Z,33.59
2018-08-03T14:44:52.878Z,34.17
2018-08-03T14:45:52.881Z,33.48
2018-08-03T14:47:45.825Z,34.25
2018-08-03T14:48:45.847Z,34.34
2018-08-03T14:50:38.814Z,34.66
2018-08-03T14:51:38.825Z,34.17
2018-08-03T14:53:31.763Z,34.46
2018-08-03T14:54:31.784Z,34.56
2018-08-03T14:56:24.758Z,34.86
2018-08-03T14:57:24.764Z,34.86
2018-08-03T14:59:17.725Z,34.34
2018-08-03T15:00:17.731Z,34.46
2018-08-03T15:02:10.716Z,34.34
2018-08-03T15:03:10.731Z,34.44
2018-08-03T15:05:03.699Z,34.56
2018-08-03T15:06:03.706Z,34.84
2018-08-03T15:07:56.707Z,34.44
2018-08-03T15:08:56.670Z,34.64
2018-08-03T15:10:49.642Z,34.15
2018-08-03T15:11:49.644Z,34.84
2018-08-03T15:13:42.592Z,35.13
2018-08-03T15:14:42.613Z,34.15
2018-08-03T15:16:35.596Z,34.64
2018-08-03T15:17:35.600Z,34.84
2018-08-03T15:19:28.567Z,34.53
2018-08-03T15:20:28.568Z,34.54
2018-08-03T15:22:21.520Z,35.21
2018-08-03T15:23:21.546Z,34.92
2018-08-03T15:25:14.509Z,35.41
2018-08-03T15:26:14.512Z,36.10
2018-08-03T15:28:07.457Z,35.99
2018-08-03T15:29:07.485Z,36.18
2018-08-03T15:31:00.444Z,35.80
2018-08-03T15:32:00.450Z,35.88
2018-08-03T15:33:53.397Z,35.90
2018-08-03T15:34:53.422Z,35.88
2018-08-03T15:36:46.445Z,36.28
2018-08-03T15:37:46.390Z,36.18
2018-08-03T15:39:39.359Z,35.88
2018-08-03T15:40:39.358Z,35.99
2018-08-03T15:42:32.317Z,35.30
2018-08-03T15:43:32.338Z,35.30
2018-08-03T15:45:25.303Z,35.57
2018-08-03T15:46:25.306Z,35.47
2018-08-03T15:48:18.252Z,35.49
2018-08-03T15:49:18.279Z,35.77
2018-08-03T15:51:11.248Z,36.08
2018-08-03T15:52:11.246Z,35.49
2018-08-03T15:54:04.193Z,35.20
2018-08-03T15:55:04.213Z,35.20
2018-08-03T15:56:57.178Z,35.10
2018-08-03T15:57:57.185Z,35.10
2018-08-03T15:59:50.132Z,34.70
2018-08-03T16:00:50.158Z,35.00
2018-08-03T16:02:43.120Z,35.30
2018-08-03T16:03:43.120Z,35.30
2018-08-03T16:05:36.088Z,35.10
2018-08-03T16:06:36.143Z,35.00
2018-08-03T16:08:29.037Z,34.89
2018-08-03T16:09:29.056Z,35.28
2018-08-03T16:11:22.027Z,34.89
2018-08-03T16:12:22.024Z,35.08
2018-08-03T16:14:14.976Z,35.38
2018-08-03T16:15:14.995Z,35.28
2018-08-03T16:17:07.956Z,34.89
2018-08-03T16:18:07.964Z,35.16
2018-08-03T16:20:00.909Z,35.16
2018-08-03T16:21:00.930Z,35.26
2018-08-03T16:22:53.897Z,35.46
2018-08-03T16:23:53.900Z,35.26
2018-08-03T16:25:46.859Z,35.55
2018-08-03T16:26:46.864Z,36.05
2018-08-03T16:28:39.812Z,36.05
2018-08-03T16:29:39.835Z,35.66
2018-08-03T16:31:32.798Z,35.66
2018-08-03T16:32:32.850Z,35.74
2018-08-03T16:34:25.751Z,36.22
2018-08-03T16:35:25.769Z,35.93
2018-08-03T16:37:18.776Z,35.93
2018-08-03T16:38:18.739Z,36.03
2018-08-03T16:40:11.681Z,36.42
2018-08-03T16:41:11.709Z,36.42
2018-08-03T16:43:04.663Z,36.52
2018-08-03T16:44:04.667Z,35.93
2018-08-03T16:45:57.631Z,36.03
2018-08-03T16:46:57.636Z,36.72
2018-08-03T16:48:50.573Z,36.91
2018-08-03T16:49:50.600Z,36.99
2018-08-03T16:51:43.568Z,36.70
2018-08-03T16:52:43.569Z,36.99
2018-08-03T16:54:37.007Z,37.29
2018-08-03T16:55:37.032Z,36.60
2018-08-03T16:57:29.993Z,36.99
2018-08-03T16:58:29.997Z,36.99
2018-08-03T17:00:22.955Z,36.70
2018-08-03T17:01:22.962Z,36.51
2018-08-03T17:03:15.927Z,36.90
2018-08-03T17:04:15.932Z,37.29
2018-08-03T17:06:08.893Z,36.80
2018-08-03T17:07:08.921Z,36.11
2018-08-03T17:09:01.847Z,36.99
2018-08-03T17:10:01.866Z,37.19
2018-08-03T17:11:54.838Z,36.90
2018-08-03T17:12:54.833Z,37.29
2018-08-03T17:14:47.774Z,37.19
2018-08-03T17:15:47.800Z,37.09
2018-08-03T17:17:40.774Z,37.07
2018-08-03T17:18:40.774Z,37.07
2018-08-03T17:20:33.727Z,36.58
2018-08-03T17:21:33.751Z,36.58
2018-08-03T17:23:26.711Z,36.78
2018-08-03T17:24:26.719Z,36.68
2018-08-03T17:26:19.692Z,37.37
2018-08-03T17:27:19.681Z,37.27
2018-08-03T17:29:12.621Z,37.45
2018-08-03T17:30:12.646Z,37.45
2018-08-03T17:32:05.662Z,38.13
2018-08-03T17:33:05.608Z,37.15
2018-08-03T17:34:58.549Z,38.13
2018-08-03T17:35:58.572Z,38.13
2018-08-03T17:37:51.546Z,37.94
2018-08-03T17:38:51.545Z,38.13
2018-08-03T17:40:44.486Z,38.04
2018-08-03T17:41:44.509Z,38.53
2018-08-03T17:43:37.473Z,38.41
2018-08-03T17:44:37.470Z,38.41
2018-08-03T17:46:30.415Z,38.80
2018-08-03T17:47:30.431Z,38.60
2018-08-03T17:49:23.393Z,38.90
2018-08-03T17:50:23.417Z,38.41
2018-08-03T17:52:16.358Z,39.19
2018-08-03T17:53:16.364Z,39.19
2018-08-03T17:55:09.313Z,39.66
2018-08-03T17:56:09.378Z,38.98
2018-08-03T17:58:02.291Z,38.78
2018-08-03T17:59:02.292Z,39.56
2018-08-03T18:00:55.236Z,39.96
2018-08-03T18:01:55.255Z,39.66
2018-08-03T18:03:48.218Z,39.86
2018-08-03T18:04:48.222Z,39.56
2018-08-03T18:06:41.177Z,39.86
2018-08-03T18:07:41.207Z,39.96
2018-08-03T18:09:34.207Z,39.96
2018-08-03T18:10:34.160Z,40.16
2018-08-03T18:12:27.128Z,40.33
2018-08-03T18:13:27.126Z,40.64
2018-08-03T18:15:20.073Z,41.02
2018-08-03T18:16:20.096Z,40.82
2018-08-03T18:18:13.053Z,41.02
2018-08-03T18:19:13.055Z,41.02
2018-08-03T18:21:06.008Z,41.29
2018-08-03T18:22:06.030Z,41.19
2018-08-03T18:23:58.987Z,41.49
2018-08-03T18:24:58.989Z,41.39
2018-08-03T18:26:51.930Z,41.58
2018-08-03T18:27:51.954Z,42.07
2018-08-03T18:29:44.911Z,41.78
2018-08-03T18:30:44.912Z,42.17
2018-08-03T18:32:37.870Z,42.46
2018-08-03T18:33:37.872Z,42.27
2018-08-03T18:35:30.811Z,42.15
2018-08-03T18:36:30.830Z,42.25
2018-08-03T18:38:23.789Z,42.15
2018-08-03T18:39:23.791Z,42.54
2018-08-03T18:41:16.749Z,43.03
2018-08-03T18:42:16.748Z,42.93
2018-08-03T18:44:09.713Z,42.83
2018-08-03T18:45:09.718Z,43.01
2018-08-03T18:47:02.656Z,42.61
2018-08-03T18:48:02.676Z,43.10
2018-08-03T18:49:55.636Z,43.10
2018-08-03T18:50:55.638Z,43.01
2018-08-03T18:52:48.614Z,43.30
2018-08-03T18:53:48.601Z,43.10
2018-08-03T18:55:41.548Z,43.28
2018-08-03T18:56:41.565Z,43.08
2018-08-03T18:58:34.525Z,43.28
2018-08-03T18:59:34.523Z,43.28
2018-08-03T19:01:27.467Z,44.45